createdAt,value
2019-05-13T00:00:25.251Z,1.27
2019-05-13T00:02:54.268Z,1.40
2019-05-13T00:05:20.748Z,1.20
2019-05-13T00:07:47.434Z,1.57
2019-05-13T00:10:14.930Z,1.30
2019-05-13T00:12:44.514Z,1.60
2019-05-13T00:15:13.961Z,1.60
2019-05-13T00:17:41.110Z,1.20
2019-05-13T00:20:08.326Z,1.37
2019-05-13T00:22:35.016Z,1.20
2019-05-13T00:25:04.054Z,1.87
2019-05-13T00:27:33.732Z,1.37
2019-05-13T00:29:59.841Z,1.30
2019-05-13T00:32:26.593Z,1.30
2019-05-13T00:34:53.475Z,1.30
2019-05-13T00:37:20.436Z,1.30
2019-05-13T00:39:47.000Z,1.30
2019-05-13T00:42:14.246Z,1.20
2019-05-13T00:44:41.186Z,1.30
2019-05-13T00:47:07.980Z,1.23
2019-05-13T00:49:34.829Z,1.43
2019-05-13T00:52:03.896Z,1.17
2019-05-13T00:54:30.702Z,1.50
2019-05-13T00:56:57.293Z,1.37
2019-05-13T00:59:24.314Z,1.33
2019-05-13T01:01:53.313Z,1.50
2019-05-13T01:04:20.245Z,1.20
2019-05-13T01:06:46.816Z,1.30
2019-05-13T01:09:14.534Z,1.30
2019-05-13T01:11:43.628Z,1.43
2019-05-13T01:14:10.079Z,1.00
2019-05-13T01:16:36.910Z,1.20
2019-05-13T01:19:04.176Z,1.30
2019-05-13T01:21:31.074Z,1.20
2019-05-13T01:23:57.791Z,1.27
2019-05-13T01:26:24.531Z,1.43
2019-05-13T01:28:53.456Z,1.30
2019-05-13T01:31:19.786Z,1.30
2019-05-13T01:33:46.376Z,1.10
2019-05-13T01:36:13.463Z,1.73
2019-05-13T01:38:43.571Z,1.10
2019-05-13T01:41:10.706Z,1.77
2019-05-13T01:43:37.385Z,1.50
2019-05-13T01:46:04.640Z,1.00
2019-05-13T01:48:33.314Z,0.97
2019-05-13T01:51:00.095Z,1.07
2019-05-13T01:53:27.145Z,1.17
2019-05-13T01:55:53.863Z,0.93
2019-05-13T01:58:20.509Z,1.13
2019-05-13T02:00:47.093Z,0.80
2019-05-13T02:03:14.527Z,1.07
2019-05-13T02:05:43.924Z,0.87
2019-05-13T02:08:10.410Z,0.80
2019-05-13T02:10:39.096Z,1.00
2019-05-13T02:13:05.754Z,1.20
2019-05-13T02:15:33.753Z,0.80
2019-05-13T02:18:00.648Z,1.03
2019-05-13T02:20:27.510Z,0.80
2019-05-13T02:22:54.063Z,0.93
2019-05-13T02:25:20.698Z,1.00
2019-05-13T02:27:47.344Z,1.00
2019-05-13T02:30:15.941Z,0.60
2019-05-13T02:32:43.126Z,0.80
2019-05-13T02:35:13.521Z,1.03
2019-05-13T02:37:43.506Z,0.80
2019-05-13T02:40:13.219Z,0.90
2019-05-13T02:42:38.788Z,0.70
2019-05-13T02:45:05.930Z,0.80
2019-05-13T02:47:33.166Z,0.70
2019-05-13T02:50:05.050Z,0.80
2019-05-13T02:52:33.453Z,0.67
2019-05-13T02:55:03.598Z,0.60
2019-05-13T02:57:27.988Z,0.60
2019-05-13T02:59:54.888Z,0.80
2019-05-13T03:02:22.354Z,0.60
2019-05-13T03:04:52.092Z,0.80
2019-05-13T03:07:17.969Z,0.90
2019-05-13T03:09:44.628Z,0.70
2019-05-13T03:12:13.088Z,0.70
2019-05-13T03:14:47.969Z,0.73
2019-05-13T03:17:13.685Z,0.80
2019-05-13T03:19:43.254Z,0.63
2019-05-13T03:22:09.305Z,0.60
2019-05-13T03:24:35.904Z,0.80
2019-05-13T03:27:02.868Z,0.80
2019-05-13T03:29:32.965Z,0.87
2019-05-13T03:31:58.841Z,0.57
2019-05-13T03:34:27.250Z,0.80
2019-05-13T03:36:57.738Z,0.80
2019-05-13T03:39:27.488Z,0.90
2019-05-13T03:41:58.451Z,0.50
2019-05-13T03:44:32.545Z,0.63
2019-05-13T03:47:03.481Z,0.60
2019-05-13T03:49:34.169Z,0.73
2019-05-13T03:52:02.893Z,0.83
2019-05-13T03:54:32.811Z,0.70
2019-05-13T03:56:59.299Z,0.67
2019-05-13T03:59:27.214Z,0.80
2019-05-13T04:01:55.073Z,0.80
2019-05-13T04:04:23.317Z,0.80
2019-05-13T04:06:53.101Z,0.63
2019-05-13T04:09:27.615Z,0.67
2019-05-13T04:11:52.338Z,0.80
2019-05-13T04:14:17.945Z,0.90
2019-05-13T04:16:44.792Z,0.80
2019-05-13T04:19:12.407Z,0.77
2019-05-13T04:21:42.985Z,0.90
2019-05-13T04:24:12.012Z,0.70
2019-05-13T04:26:37.316Z,0.90
2019-05-13T04:29:03.868Z,1.10
2019-05-13T04:31:33.297Z,0.80
2019-05-13T04:34:02.195Z,0.70
2019-05-13T04:36:28.282Z,0.97
2019-05-13T04:38:56.037Z,0.83
2019-05-13T04:41:23.442Z,0.90
2019-05-13T04:43:53.601Z,1.17
2019-05-13T04:46:22.459Z,0.80
2019-05-13T04:48:48.034Z,0.90
2019-05-13T04:51:14.882Z,1.23
2019-05-13T04:53:42.522Z,1.20
2019-05-13T04:56:13.278Z,0.73
2019-05-13T04:58:38.882Z,0.90
2019-05-13T05:01:14.116Z,1.33
2019-05-13T05:03:46.229Z,1.03
2019-05-13T05:06:15.131Z,1.20
2019-05-13T05:08:48.053Z,0.93
2019-05-13T05:11:22.229Z,1.07
2019-05-13T05:13:56.753Z,1.23
2019-05-13T05:16:32.399Z,1.63
2019-05-13T05:19:03.622Z,1.13
2019-05-13T05:21:36.038Z,1.30
2019-05-13T05:24:08.453Z,1.13
2019-05-13T05:26:42.128Z,1.30
2019-05-13T05:29:12.593Z,1.07
2019-05-13T05:31:45.144Z,1.20
2019-05-13T05:34:17.688Z,1.40
2019-05-13T05:36:52.057Z,1.37
2019-05-13T05:39:24.163Z,1.50
2019-05-13T05:41:55.633Z,1.67
2019-05-13T05:44:26.883Z,1.80
2019-05-13T05:46:57.045Z,1.70
2019-05-13T05:49:25.703Z,2.10
2019-05-13T05:51:58.042Z,1.97
2019-05-13T05:54:28.736Z,1.80
2019-05-13T05:57:01.239Z,1.90
2019-05-13T05:59:31.822Z,1.90
2019-05-13T06:02:01.971Z,2.87
2019-05-13T06:04:28.390Z,1.97
2019-05-13T06:06:55.677Z,1.67
2019-05-13T06:09:24.563Z,1.77
2019-05-13T06:11:53.463Z,2.47
2019-05-13T06:14:22.196Z,2.23
2019-05-13T06:16:51.849Z,1.80
2019-05-13T06:19:22.353Z,2.00
2019-05-13T06:21:51.186Z,2.20
2019-05-13T06:24:17.508Z,1.90
2019-05-13T06:26:44.606Z,2.10
2019-05-13T06:29:12.555Z,1.90
2019-05-13T06:31:41.750Z,1.93
2019-05-13T06:34:08.385Z,1.60
2019-05-13T06:36:35.649Z,1.93
2019-05-13T06:39:07.339Z,2.20
2019-05-13T06:41:34.014Z,1.60
2019-05-13T06:44:02.361Z,1.80
2019-05-13T06:46:29.207Z,1.20
2019-05-13T06:48:55.969Z,1.60
2019-05-13T06:51:22.764Z,1.13
2019-05-13T06:53:51.589Z,1.57
2019-05-13T06:56:18.045Z,1.30
2019-05-13T06:58:44.710Z,1.67
2019-05-13T07:01:11.693Z,1.30
2019-05-13T07:03:38.425Z,1.40
2019-05-13T07:06:05.130Z,1.40
2019-05-13T07:08:31.692Z,1.50
2019-05-13T07:10:58.539Z,1.70
2019-05-13T07:13:25.168Z,1.80
2019-05-13T07:15:52.274Z,1.90
2019-05-13T07:18:21.737Z,2.07
2019-05-13T07:20:48.839Z,2.70
2019-05-13T07:23:15.536Z,2.20
2019-05-13T07:25:42.341Z,2.03
2019-05-13T07:28:09.074Z,1.93
2019-05-13T07:30:42.475Z,2.27
2019-05-13T07:33:12.558Z,2.20
2019-05-13T07:35:44.300Z,2.53
2019-05-13T07:38:11.512Z,2.50
2019-05-13T07:40:38.027Z,2.93
2019-05-13T07:43:05.358Z,2.23
2019-05-13T07:45:33.176Z,2.07
2019-05-13T07:48:56.356Z,2.10
2019-05-13T07:51:22.961Z,2.03
2019-05-13T07:53:51.705Z,2.00
2019-05-13T07:56:18.114Z,2.07
2019-05-13T07:58:44.770Z,2.03
2019-05-13T08:01:12.418Z,2.47
2019-05-13T08:03:39.166Z,2.50
2019-05-13T08:06:05.967Z,2.70
2019-05-13T08:08:32.586Z,1.97
2019-05-13T08:11:01.173Z,2.43
2019-05-13T08:13:27.822Z,2.20
2019-05-13T08:15:54.804Z,1.93
2019-05-13T08:18:22.187Z,1.90
2019-05-13T08:20:49.214Z,2.13
2019-05-13T08:23:16.092Z,1.87
2019-05-13T08:25:43.103Z,2.23
2019-05-13T08:28:12.242Z,2.00
2019-05-13T08:30:39.395Z,2.50
2019-05-13T12:09:40.926Z,5.73
2019-05-13T12:12:07.938Z,6.90
2019-05-13T12:14:51.023Z,5.33
2019-05-13T12:17:03.157Z,5.33
2019-05-13T12:19:29.833Z,5.17
2019-05-13T12:21:56.798Z,4.70
2019-05-13T12:24:23.539Z,4.60
2019-05-13T12:26:53.149Z,4.17
2019-05-13T12:29:19.477Z,4.10
2019-05-13T12:31:46.225Z,3.63
2019-05-13T12:34:13.455Z,38.60
2019-05-13T12:36:43.303Z,9.57
2019-05-13T12:39:13.797Z,3.67
2019-05-13T12:41:38.936Z,4.00
2019-05-13T12:44:05.776Z,4.80
2019-05-13T12:46:32.725Z,4.47
2019-05-13T12:48:59.365Z,2.80
2019-05-13T12:51:26.361Z,2.80
2019-05-13T12:53:53.129Z,2.50
2019-05-13T12:56:23.218Z,2.80
2019-05-13T12:58:51.266Z,2.97
2019-05-13T13:01:17.522Z,5.23
2019-05-13T13:03:44.167Z,4.77
2019-05-13T13:06:30.000Z,1.97
2019-05-13T13:08:47.490Z,2.23
2019-05-13T13:11:08.326Z,3.93
2019-05-13T13:13:56.670Z,4.23
2019-05-13T13:16:04.217Z,7.03
2019-05-13T13:18:30.795Z,2.43
2019-05-13T13:21:05.315Z,11.30
2019-05-13T13:23:26.026Z,8.20
2019-05-13T13:25:57.048Z,4.97
2019-05-13T13:28:23.913Z,2.57
2019-05-13T13:30:52.926Z,2.03
2019-05-13T13:33:18.876Z,2.40
2019-05-13T13:38:13.956Z,2.33
2019-05-13T13:40:45.686Z,1.97
2019-05-13T13:43:12.312Z,6.97
2019-05-13T13:46:06.029Z,2.27
2019-05-13T13:48:07.586Z,3.97
2019-05-13T13:50:34.205Z,3.50
2019-05-13T13:53:00.958Z,2.10
2019-05-13T13:55:27.746Z,13.00
2019-05-13T13:57:56.788Z,4.37
2019-05-13T14:00:38.143Z,2.27
2019-05-13T14:02:54.104Z,2.10
2019-05-13T14:05:24.831Z,2.60
2019-05-13T14:06:58.552Z,2.67
2019-05-13T14:07:49.140Z,2.90
2019-05-13T14:10:16.613Z,2.00
2019-05-13T14:12:43.308Z,3.23
2019-05-13T14:15:11.073Z,1.77
2019-05-13T14:17:37.916Z,2.20
2019-05-13T14:20:06.921Z,2.70
2019-05-13T14:22:33.587Z,2.00
2019-05-13T14:25:00.256Z,2.27
2019-05-13T14:27:26.852Z,2.30
2019-05-13T14:29:53.485Z,2.50
2019-05-13T14:32:22.284Z,2.30
2019-05-13T14:34:48.531Z,2.40
2019-05-13T14:37:15.345Z,2.53
2019-05-13T14:39:42.702Z,3.10
2019-05-13T14:42:11.575Z,1.60
2019-05-13T14:44:38.206Z,3.93
2019-05-13T14:47:04.885Z,1.90
2019-05-13T14:49:31.841Z,2.80
2019-05-13T14:52:00.753Z,1.83
2019-05-13T14:54:28.423Z,2.83
2019-05-13T14:56:55.202Z,1.63
2019-05-13T14:59:22.201Z,2.20
2019-05-13T15:01:51.681Z,1.57
2019-05-13T15:04:21.925Z,2.40
2019-05-13T15:06:46.331Z,1.73
2019-05-13T15:09:13.039Z,1.30
2019-05-13T15:11:41.898Z,1.67
2019-05-13T15:14:08.166Z,2.47
2019-05-13T15:16:34.867Z,3.90
2019-05-13T15:19:01.921Z,2.00
2019-05-13T15:21:28.849Z,1.80
2019-05-13T15:23:55.492Z,1.73
2019-05-13T15:26:22.329Z,1.30
2019-05-13T15:28:51.145Z,1.73
2019-05-13T15:31:17.715Z,1.90
2019-05-13T15:33:44.507Z,1.40
2019-05-13T15:36:11.988Z,1.80
2019-05-13T15:38:41.259Z,1.60
2019-05-13T15:41:07.514Z,1.60
2019-05-13T15:43:34.094Z,2.17
2019-05-13T15:46:01.693Z,1.90
2019-05-13T15:48:31.519Z,2.10
2019-05-13T15:50:58.567Z,1.93
2019-05-13T15:53:25.190Z,2.33
2019-05-13T15:55:51.858Z,1.97
2019-05-13T15:58:21.683Z,2.10
2019-05-13T16:00:52.360Z,2.03
2019-05-13T16:03:19.484Z,1.57
2019-05-13T16:05:46.060Z,2.57
2019-05-13T16:08:13.083Z,2.33
2019-05-13T16:10:41.964Z,2.27
2019-05-13T16:13:11.983Z,2.50
2019-05-13T16:15:41.464Z,2.53
2019-05-13T16:18:07.452Z,2.87
2019-05-13T16:20:34.501Z,2.20
2019-05-13T16:23:02.421Z,2.30
2019-05-13T16:25:31.789Z,2.43
2019-05-13T16:27:57.929Z,2.20
2019-05-13T16:30:24.884Z,2.43
2019-05-13T16:32:52.095Z,2.33
2019-05-13T16:35:20.993Z,2.50
2019-05-13T16:37:47.732Z,3.07
2019-05-13T16:40:15.108Z,2.67
2019-05-13T16:42:42.361Z,2.80
2019-05-13T16:45:11.973Z,3.17
2019-05-13T16:47:55.410Z,2.67
2019-05-13T16:50:08.186Z,2.90
2019-05-13T16:52:35.149Z,2.80
2019-05-13T16:55:05.116Z,2.37
2019-05-13T16:57:31.766Z,2.53
2019-05-13T16:59:58.335Z,2.80
2019-05-13T17:02:24.955Z,2.73
2019-05-13T17:04:52.583Z,2.70
2019-05-13T17:07:21.268Z,3.40
2019-05-13T17:09:47.942Z,3.37
2019-05-13T17:12:15.941Z,3.17
2019-05-13T17:14:43.237Z,3.43
2019-05-13T17:17:11.905Z,3.53
2019-05-13T17:19:38.878Z,3.20
2019-05-13T17:22:05.586Z,2.90
2019-05-13T17:24:32.241Z,3.00
2019-05-13T17:27:01.388Z,2.60
2019-05-13T17:29:27.714Z,2.97
2019-05-13T17:31:54.484Z,3.10
2019-05-13T17:34:21.294Z,2.90
2019-05-13T17:36:47.975Z,2.80
2019-05-13T17:39:14.704Z,2.70
2019-05-13T17:41:41.721Z,2.83
2019-05-13T17:44:08.293Z,2.90
2019-05-13T17:46:34.910Z,3.43
2019-05-13T17:49:01.563Z,3.40
2019-05-13T17:51:28.347Z,3.40
2019-05-13T17:53:55.038Z,3.73
2019-05-13T17:56:22.964Z,4.60
2019-05-13T17:58:51.656Z,4.40
2019-05-13T18:01:21.055Z,5.03
2019-05-13T18:03:47.096Z,4.57
2019-05-13T18:06:14.276Z,4.73
2019-05-13T18:08:41.312Z,5.10
2019-05-13T18:11:08.295Z,4.97
2019-05-13T18:13:35.941Z,5.37
2019-05-13T18:16:03.519Z,4.93
2019-05-13T18:18:40.274Z,5.20
2019-05-13T18:21:01.275Z,4.73
2019-05-13T18:23:27.461Z,4.23
2019-05-13T18:25:54.298Z,4.60
2019-05-13T18:28:31.325Z,5.50
2019-05-13T18:30:57.511Z,4.33
2019-05-13T18:33:24.617Z,5.27
2019-05-13T18:35:54.672Z,5.00
2019-05-13T18:38:23.068Z,5.47
2019-05-13T18:40:52.386Z,5.57
2019-05-13T18:43:18.503Z,5.13
2019-05-13T18:45:45.363Z,6.37
2019-05-13T18:48:13.278Z,7.07
2019-05-13T18:50:42.002Z,5.80
2019-05-13T18:53:08.869Z,5.47
2019-05-13T18:55:36.301Z,6.47
2019-05-13T18:58:03.148Z,6.40
2019-05-13T19:00:32.070Z,7.90
2019-05-13T19:03:01.119Z,9.13
2019-05-13T19:05:28.390Z,15.17
2019-05-13T19:07:55.000Z,8.07
2019-05-13T19:10:24.890Z,8.47
2019-05-13T19:12:51.533Z,10.70
2019-05-13T19:15:21.258Z,8.60
2019-05-13T19:17:48.331Z,8.97
2019-05-13T19:20:15.202Z,9.33
2019-05-13T19:22:42.179Z,9.27
2019-05-13T19:25:11.955Z,11.57
2019-05-13T19:27:41.372Z,10.63
2019-05-13T19:30:12.117Z,11.03
2019-05-13T19:32:41.714Z,10.70
2019-05-13T19:35:11.689Z,11.87
2019-05-13T19:37:38.024Z,11.33
2019-05-13T19:40:05.599Z,11.13
2019-05-13T19:42:33.235Z,11.97
2019-05-13T19:45:01.933Z,11.13
2019-05-13T19:47:28.899Z,11.33
2019-05-13T19:49:55.864Z,12.50
2019-05-13T19:52:22.714Z,13.23
2019-05-13T19:54:51.397Z,12.43
2019-05-13T19:57:18.513Z,12.47
2019-05-13T19:59:45.543Z,13.23
2019-05-13T20:02:12.637Z,13.17
2019-05-13T20:04:41.365Z,13.17
2019-05-13T20:07:08.395Z,16.33
2019-05-13T20:09:34.980Z,16.47
2019-05-13T20:12:02.669Z,18.00
2019-05-13T20:14:29.459Z,16.30
2019-05-13T20:16:56.748Z,15.73
2019-05-13T20:19:23.586Z,18.47
2019-05-13T20:21:51.728Z,18.57
2019-05-13T20:24:18.825Z,15.90
2019-05-13T20:26:46.514Z,19.67
2019-05-13T20:29:13.281Z,18.30
2019-05-13T20:31:41.304Z,18.57
2019-05-13T20:34:08.322Z,18.97
2019-05-13T20:36:35.036Z,15.60
2019-05-13T20:39:02.221Z,16.83
2019-05-13T20:41:31.556Z,16.30
2019-05-13T20:43:58.006Z,15.70
2019-05-13T20:46:24.577Z,16.43
2019-05-13T20:48:51.948Z,15.33
2019-05-13T20:51:18.907Z,15.67
2019-05-13T20:53:48.482Z,15.30
2019-05-13T20:56:16.989Z,16.70
2019-05-13T20:58:43.649Z,16.23
2019-05-13T21:01:11.143Z,15.33
2019-05-13T21:03:38.030Z,15.57
2019-05-13T21:06:06.768Z,14.93
2019-05-13T21:08:33.394Z,15.53
2019-05-13T21:11:02.319Z,15.67
2019-05-13T21:13:31.459Z,15.73
2019-05-13T21:15:58.232Z,15.73
2019-05-13T21:18:24.909Z,15.50
2019-05-13T21:20:51.484Z,15.90
2019-05-13T21:23:18.104Z,15.13
2019-05-13T21:25:44.697Z,14.47
2019-05-13T21:28:11.543Z,14.03
2019-05-13T21:30:38.314Z,15.07
2019-05-13T21:33:05.055Z,14.87
2019-05-13T21:35:31.733Z,13.87
2019-05-13T21:37:58.401Z,14.67
2019-05-13T21:40:25.125Z,14.50
2019-05-13T21:42:52.703Z,15.20
2019-05-13T21:45:19.535Z,14.37
2019-05-13T21:47:46.208Z,13.90
2019-05-13T21:50:13.449Z,15.07
2019-05-13T21:52:41.825Z,15.33
2019-05-13T21:55:11.203Z,15.03
2019-05-13T21:57:37.703Z,13.87
2019-05-13T22:00:08.700Z,9.07
2019-05-13T22:02:37.409Z,9.17
2019-05-13T22:05:04.455Z,7.10
2019-05-13T22:07:31.724Z,8.03
2019-05-13T22:09:58.500Z,6.13
2019-05-13T22:12:25.487Z,4.97
2019-05-13T22:14:52.242Z,5.30
2019-05-13T22:17:18.960Z,4.80
2019-05-13T22:19:45.562Z,4.63
2019-05-13T22:22:12.519Z,4.53
2019-05-13T22:24:39.078Z,4.70
2019-05-13T22:27:06.917Z,4.50
2019-05-13T22:29:33.577Z,3.90
2019-05-13T22:32:01.986Z,4.53
2019-05-13T22:34:29.169Z,4.57
2019-05-13T22:36:55.790Z,4.13
2019-05-13T22:39:22.646Z,4.10
2019-05-13T22:41:49.447Z,4.10
2019-05-13T22:44:16.084Z,4.70
2019-05-13T22:46:43.219Z,4.90
2019-05-13T22:49:11.604Z,4.73
2019-05-13T22:51:38.351Z,4.73
2019-05-13T22:54:05.095Z,4.23
2019-05-13T22:56:32.051Z,4.90
2019-05-13T22:58:58.747Z,4.50
2019-05-13T23:01:25.477Z,4.87
2019-05-13T23:03:52.091Z,4.50
2019-05-13T23:06:21.628Z,4.10
2019-05-13T23:08:48.576Z,4.40
2019-05-13T23:11:15.175Z,4.17
2019-05-13T23:13:42.370Z,5.03
2019-05-13T23:16:11.416Z,5.67
2019-05-13T23:18:37.921Z,5.60
2019-05-13T23:21:04.521Z,5.10
2019-05-13T23:23:31.161Z,5.70
2019-05-13T23:25:57.989Z,6.50
2019-05-13T23:28:24.628Z,6.30
2019-05-13T23:30:51.313Z,5.87
2019-05-13T23:33:18.134Z,5.90
2019-05-13T23:35:46.820Z,6.10
2019-05-13T23:38:13.622Z,6.27
2019-05-13T23:40:42.208Z,5.83
2019-05-13T23:43:11.272Z,6.17
2019-05-13T23:45:38.035Z,6.03
2019-05-13T23:48:04.596Z,6.07
2019-05-13T23:50:32.147Z,6.30
2019-05-13T23:52:59.350Z,5.27
2019-05-13T23:55:27.295Z,5.20
2019-05-13T23:57:53.919Z,5.60
